utilisation pie
utilisation bar
humidity graph
temperature graph
Station id: aae83c for 3 days

start:   stop:  

day time in temp out temp in RH out RH H quota rule action
2020-02-22 00:16:01 10.2 5.5 59 88 109 H 0
2020-02-22 00:46:02 11.0 5.4 57 89 108 H 0
2020-02-22 01:16:03 11.2 5.7 57 88 108 H 0
2020-02-22 01:46:05 11.2 5.7 56 88 109 H 0
2020-02-22 02:16:06 11.2 5.7 57 88 110 H 0
2020-02-22 02:46:07 11.7 5.6 55 90 111 H 0
2020-02-22 03:16:08 11.4 5.5 56 93 113 H 0
2020-02-22 03:46:09 11.1 5.1 57 97 117 H 0
2020-02-22 04:16:10 10.9 5.1 57 98 118 H 0
2020-02-22 04:46:11 10.7 5.2 57 97 118 H 0
2020-02-22 05:16:13 10.6 5.4 58 95 117 H 0
2020-02-22 05:46:14 10.5 5.2 58 97 120 H 0
2020-02-22 06:16:15 10.3 5.5 58 97 121 H 0
2020-02-22 06:46:16 10.4 5.7 58 95 121 H 0
2020-02-22 07:16:17 10.6 5.6 57 96 122 H 0
2020-02-22 07:46:18 10.5 5.6 58 98 124 H 0
2020-02-22 08:16:20 10.2 5.6 58 98 125 H 0
2020-02-22 08:46:21 10.0 5.8 58 95 124 H 0
2020-02-22 09:16:22 9.8 5.7 59 98 128 H 0
2020-02-22 09:46:23 9.6 5.8 59 96 127 H 0
2020-02-22 10:16:24 9.5 6.1 59 94 127 H 0
2020-02-22 10:46:25 9.4 5.8 60 99 131 H 0
2020-02-22 11:16:26 9.3 6.4 60 90 123 h 0
2020-02-22 11:46:39 9.6 6.5 59 90 124 h 0
2020-02-22 12:16:51 9.9 6.7 59 91 126 h 0
2020-02-22 12:47:03 9.6 7.0 59 96 137 H 0
2020-02-22 13:17:04 9.3 7.6 60 88 131 H 0
2020-02-22 13:47:05 9.2 8.1 60 78 121 H 0
2020-02-22 14:17:06 9.1 8.3 60 73 115 H 0
2020-02-22 14:47:07 9.1 8.1 61 73 114 H 0
2020-02-22 15:17:09 8.8 7.8 61 71 108 H 0
2020-02-22 15:47:10 8.7 7.4 61 69 103 H 0
2020-02-22 16:17:11 8.6 6.0 62 81 110 H 0
2020-02-22 16:47:12 8.5 6.2 62 75 105 H 0
2020-02-22 17:17:13 10.1 6.1 72 74 80 T
1
2020-02-22 17:47:14 11.0 6.1 74 67 65 T
1
2020-02-22 18:17:15 11.1 5.4 74 66 62 T
1
2020-02-22 18:47:17 11.0 4.8 72 69 64 T
1
2020-02-22 19:17:18 10.9 4.5 70 69 65 T
1
2020-02-22 19:47:19 10.7 4.5 69 67 65 T
1
2020-02-22 20:17:20 10.4 4.1 68 67 65 T
1
2020-02-22 20:47:21 10.2 4.2 67 66 67 T
1
2020-02-22 21:17:22 10.0 3.6 65 70 70 T
1
2020-02-22 21:47:23 10.5 3.4 62 70 71 T
1
2020-02-22 22:17:25 9.7 3.3 62 71 75 T
1
2020-02-22 22:47:26 9.4 3.2 64 71 74 T
1
2020-02-22 23:17:27 9.1 3.3 65 71 75 T
1
2020-02-22 23:47:28 8.9 3.2 65 72 77 T
1
2020-02-23 00:03:18 8.8 3.2 64 72 77 T
1
2020-02-23 00:33:27 8.6 3.1 65 72 77 T
1
2020-02-23 01:03:28 8.4 3.1 64 71 77 T
1
2020-02-23 01:33:29 8.2 3.2 65 72 79 T
1
2020-02-23 02:03:30 8.0 3.1 64 72 82 T
1
2020-02-23 02:33:32 7.9 3.4 64 72 84 T
1
2020-02-23 03:03:33 7.8 3.8 64 72 86 T
1
2020-02-23 03:33:34 8.0 4.0 62 74 91 T
1
2020-02-23 04:03:35 8.0 4.3 62 73 92 T
1
2020-02-23 04:33:36 7.8 4.4 62 75 96 H 0
2020-02-23 05:03:37 8.0 4.4 64 81 100 H 0
2020-02-23 05:33:39 8.0 4.4 65 84 103 H 0
2020-02-23 06:03:40 8.0 4.3 65 86 104 H 0
2020-02-23 06:33:41 7.9 4.5 65 83 101 H 0
2020-02-23 07:03:42 7.9 4.4 66 82 99 H 0
2020-02-23 07:33:43 7.9 4.6 66 80 98 H 0
2020-02-23 08:03:44 7.8 4.8 67 78 96 H 0
2020-02-23 08:33:45 8.1 5.3 66 76 96 H 0
2020-02-23 09:03:47 8.1 5.5 66 72 92 T
1
2020-02-23 09:33:48 7.8 5.0 67 72 89 T
1
2020-02-23 10:03:49 7.8 5.3 66 68 87 T
1
2020-02-23 10:33:50 7.9 5.6 65 65 86 T
1
2020-02-23 11:03:51 8.0 5.7 64 63 85 T
1
2020-02-23 11:33:52 8.0 5.9 63 62 86 T
1
2020-02-23 12:03:53 8.1 6.1 63 58 81 T
1
2020-02-23 12:33:55 8.2 6.2 62 58 82 T
1
2020-02-23 13:03:56 8.3 6.3 62 57 81 T
1
2020-02-23 13:33:57 9.2 6.4 59 55 78 T
1
2020-02-23 14:03:58 8.2 6.5 61 55 81 T
1
2020-02-23 14:33:59 8.1 6.5 58 52 81 T
1
2020-02-23 15:04:00 7.9 6.2 59 54 82 T
1
2020-02-23 15:34:02 10.2 6.1 48 54 86 G 0
2020-02-23 16:04:03 11.2 5.8 53 56 76 T
1
2020-02-23 16:34:04 11.5 5.0 53 59 73 T
1
2020-02-23 17:04:05 11.4 4.8 53 60 74 T
1
2020-02-23 17:34:06 11.2 4.2 53 63 75 T
1
2020-02-23 18:04:07 11.1 3.8 52 64 77 T
1
2020-02-23 18:34:08 11.2 3.2 50 66 78 T
1
2020-02-23 19:04:10 10.6 2.9 51 68 80 T
1
2020-02-23 19:34:11 10.2 2.5 52 70 80 T
1
2020-02-23 20:04:12 10.0 2.2 52 70 80 T
1
2020-02-23 20:34:13 9.7 1.9 52 69 79 T
1
2020-02-23 21:04:14 9.5 1.8 52 69 79 T
1
2020-02-23 21:34:15 9.2 1.3 52 70 79 T
1
2020-02-23 22:04:16 9.0 1.3 52 68 78 T
1
2020-02-23 22:34:17 9.4 1.1 51 69 78 T
1
2020-02-23 23:04:19 8.8 0.7 51 69 78 T
1
2020-02-23 23:34:20 8.3 0.5 53 69 76 T
1
2020-02-24 00:04:21 8.0 0.2 53 68 75 T
1
2020-02-24 00:34:22 7.8 0.5 52 64 74 T
1
2020-02-24 01:04:23 7.6 0.3 52 64 75 T
1
2020-02-24 01:34:24 7.4 0.2 52 65 75 T
1


2020-02-24 02:49:08 CET